createdAt,value
2023-01-12T00:04:55.004Z,37.30
2023-01-12T00:10:02.474Z,38.50
2023-01-12T00:15:11.903Z,35.80
2023-01-12T00:20:19.936Z,35.00
2023-01-12T00:25:27.721Z,33.70
2023-01-12T00:30:35.182Z,38.30
2023-01-12T00:35:42.630Z,37.90
2023-01-12T00:40:50.452Z,37.70
2023-01-12T00:45:58.227Z,37.30
2023-01-12T00:51:07.573Z,37.50
2023-01-12T00:56:18.970Z,33.60
2023-01-12T01:01:27.692Z,37.20
2023-01-12T01:06:35.311Z,41.00
2023-01-12T01:11:43.020Z,40.50
2023-01-12T01:16:51.150Z,39.30
2023-01-12T01:22:01.474Z,41.00
2023-01-12T01:27:09.796Z,40.40
2023-01-12T01:32:17.212Z,31.40
2023-01-12T01:37:25.752Z,36.40
2023-01-12T01:42:33.476Z,35.00
2023-01-12T01:47:46.257Z,34.70
2023-01-12T01:52:57.524Z,41.50
2023-01-12T01:58:10.495Z,30.20
2023-01-12T02:03:22.322Z,35.10
2023-01-12T02:08:36.439Z,24.70
2023-01-12T02:14:02.415Z,24.20
2023-01-12T02:19:29.533Z,32.10
2023-01-12T02:24:57.046Z,25.30
2023-01-12T02:30:40.095Z,25.20
2023-01-12T02:36:02.546Z,33.00
2023-01-12T02:41:43.326Z,32.60
2023-01-12T02:46:54.297Z,39.60
2023-01-12T02:52:07.086Z,40.70
2023-01-12T02:57:15.840Z,37.60
2023-01-12T03:02:26.333Z,38.80
2023-01-12T03:07:47.507Z,31.10
2023-01-12T03:12:58.612Z,33.40
2023-01-12T03:18:10.293Z,30.80
2023-01-12T03:23:23.438Z,39.30
2023-01-12T03:28:37.971Z,39.70
2023-01-12T03:33:46.966Z,38.80
2023-01-12T03:39:04.198Z,40.20
2023-01-12T03:44:20.802Z,38.70
2023-01-12T03:49:37.471Z,36.40
2023-01-12T03:54:48.009Z,39.70
2023-01-12T04:00:00.667Z,36.30
2023-01-12T04:05:11.093Z,28.60
2023-01-12T04:10:19.366Z,28.40
2023-01-12T04:15:28.058Z,29.60
2023-01-12T04:20:35.675Z,30.00
2023-01-12T04:25:43.435Z,35.20
2023-01-12T04:30:51.005Z,34.40
2023-01-12T04:35:59.743Z,33.30
2023-01-12T04:41:09.095Z,33.80
2023-01-12T04:46:17.864Z,32.90
2023-01-12T04:51:26.418Z,29.60
2023-01-12T04:56:34.335Z,29.80
2023-01-12T05:01:42.609Z,28.20
2023-01-12T05:06:50.127Z,23.30
2023-01-12T05:11:57.605Z,24.20
2023-01-12T05:17:05.633Z,21.10
2023-01-12T05:22:22.805Z,25.80
2023-01-12T05:27:31.308Z,23.70
2023-01-12T05:32:42.616Z,27.70
2023-01-12T05:37:50.787Z,20.80
2023-01-12T05:43:16.394Z,18.90
2023-01-12T05:48:24.255Z,21.70
2023-01-12T05:53:32.903Z,23.20
2023-01-12T06:04:38.378Z,19.50
2023-01-12T06:09:46.261Z,28.70
2023-01-12T06:14:54.366Z,25.80
2023-01-12T06:20:02.448Z,28.20
2023-01-12T06:25:12.545Z,24.10
2023-01-12T06:30:23.747Z,24.80
2023-01-12T06:35:34.000Z,26.90
2023-01-12T06:40:41.246Z,25.20
2023-01-12T06:45:48.928Z,24.40
2023-01-12T06:51:03.281Z,23.60
2023-01-12T06:56:11.050Z,23.60
2023-01-12T07:01:18.592Z,26.80
2023-01-12T07:09:27.877Z,23.50
2023-01-12T07:14:35.495Z,22.90
2023-01-12T07:19:43.873Z,22.60
2023-01-12T07:24:51.727Z,23.80
2023-01-12T07:29:59.851Z,22.00
2023-01-12T07:35:09.967Z,24.30
2023-01-12T07:40:19.775Z,24.60
2023-01-12T07:45:29.125Z,25.40
2023-01-12T07:50:37.427Z,26.40
2023-01-12T07:55:46.085Z,19.50
2023-01-12T08:00:53.692Z,21.80
2023-01-12T08:06:03.429Z,21.60
2023-01-12T08:11:12.333Z,21.70
2023-01-12T08:16:26.721Z,20.10
2023-01-12T08:21:45.421Z,19.90
2023-01-12T08:26:57.483Z,18.10
2023-01-12T08:37:17.776Z,18.90
2023-01-12T08:42:30.856Z,16.60
2023-01-12T08:47:42.661Z,18.60
2023-01-12T08:52:50.332Z,19.20
2023-01-12T08:57:59.509Z,19.00
2023-01-12T09:03:07.365Z,18.00
2023-01-12T09:08:16.280Z,23.80
2023-01-12T09:13:25.152Z,22.50
2023-01-12T09:18:33.074Z,25.20
2023-01-12T09:23:41.578Z,24.60
2023-01-12T09:28:49.212Z,20.60
2023-01-12T09:33:57.729Z,20.80
2023-01-12T09:39:06.045Z,19.40
2023-01-12T09:44:40.434Z,16.70
2023-01-12T09:50:01.327Z,15.90
2023-01-12T09:55:20.502Z,13.50
2023-01-12T10:00:29.531Z,15.30
2023-01-12T10:05:46.416Z,15.60
2023-01-12T10:11:06.439Z,15.10
2023-01-12T10:16:23.741Z,14.80
2023-01-12T10:21:33.831Z,13.60
2023-01-12T10:26:46.418Z,11.60
2023-01-12T10:31:53.782Z,10.20
2023-01-12T10:37:10.746Z,7.10
2023-01-12T10:42:40.065Z,6.60
2023-01-12T10:47:50.832Z,5.80
2023-01-12T10:53:04.083Z,5.00
2023-01-12T10:58:24.325Z,5.00
2023-01-12T11:03:38.453Z,4.20
2023-01-12T11:08:49.365Z,8.40
2023-01-12T11:14:00.468Z,3.40
2023-01-12T11:19:29.048Z,4.30
2023-01-12T11:24:43.639Z,4.20
2023-01-12T11:30:00.435Z,5.10
2023-01-12T11:35:29.652Z,3.50
2023-01-12T11:40:40.029Z,6.20
2023-01-12T11:45:55.197Z,3.70
2023-01-12T11:51:03.928Z,2.60
2023-01-12T11:56:25.960Z,2.70
2023-01-12T12:01:44.957Z,3.10
2023-01-12T12:07:05.359Z,2.90
2023-01-12T12:12:27.363Z,2.60
2023-01-12T12:17:44.265Z,2.80
2023-01-12T12:23:07.064Z,2.80
2023-01-12T12:28:30.717Z,2.70
2023-01-12T12:34:00.692Z,2.90
2023-01-12T12:39:29.205Z,3.20
2023-01-12T12:45:08.892Z,3.20
2023-01-12T12:50:22.487Z,3.10
2023-01-12T12:55:31.319Z,3.30
2023-01-12T13:00:42.996Z,3.10
2023-01-12T13:06:11.500Z,3.00
2023-01-12T13:11:19.259Z,3.20
2023-01-12T13:16:49.809Z,3.90
2023-01-12T13:22:19.679Z,3.60
2023-01-12T13:27:56.163Z,5.40
2023-01-12T13:33:16.861Z,2.60
2023-01-12T13:38:40.833Z,3.60
2023-01-12T13:43:55.211Z,3.50
2023-01-12T13:49:03.970Z,3.60
2023-01-12T13:54:16.115Z,3.80
2023-01-12T13:59:26.462Z,3.60
2023-01-12T14:04:58.023Z,4.00
2023-01-12T14:10:21.441Z,2.90
2023-01-12T14:15:56.517Z,4.00
2023-01-12T14:21:04.892Z,3.00
2023-01-12T14:26:23.089Z,3.30
2023-01-12T14:31:40.614Z,3.20
2023-01-12T14:36:48.924Z,2.80
2023-01-12T14:42:16.211Z,3.60
2023-01-12T14:47:33.785Z,4.20
2023-01-12T14:52:47.124Z,3.70
2023-01-12T14:57:57.257Z,3.30
2023-01-12T15:03:14.886Z,3.20
2023-01-12T15:13:36.263Z,2.70
2023-01-12T15:19:02.732Z,3.40
2023-01-12T15:24:40.621Z,2.90
2023-01-12T15:34:55.267Z,4.00
2023-01-12T15:47:31.278Z,4.20
2023-01-12T15:52:35.478Z,4.70
2023-01-12T15:57:39.749Z,4.70
2023-01-12T16:02:47.720Z,5.80
2023-01-12T16:07:52.484Z,6.30
2023-01-12T16:12:59.326Z,5.00
2023-01-12T16:18:03.433Z,5.60
2023-01-12T16:23:07.405Z,6.60
2023-01-12T16:28:11.420Z,6.00
2023-01-12T16:33:17.338Z,7.80
2023-01-12T16:38:21.936Z,7.00
2023-01-12T16:43:29.670Z,6.50
2023-01-12T16:48:34.846Z,6.10
2023-01-12T16:53:41.133Z,6.80
2023-01-12T16:58:48.000Z,8.20
2023-01-12T17:03:57.423Z,7.10
2023-01-12T17:09:02.611Z,9.10
2023-01-12T17:14:22.390Z,7.20
2023-01-12T17:19:29.743Z,8.60
2023-01-12T17:24:35.364Z,10.40
2023-01-12T17:29:39.892Z,10.60
2023-01-12T17:34:47.409Z,8.80
2023-01-12T17:39:52.562Z,10.20
2023-01-12T17:54:41.676Z,9.50
2023-01-12T18:04:57.598Z,9.70
2023-01-12T18:10:05.169Z,23.80
2023-01-12T18:15:14.702Z,9.60
2023-01-12T18:20:22.475Z,11.10
2023-01-12T18:25:29.933Z,10.90
2023-01-12T18:30:37.615Z,11.20
2023-01-12T18:41:10.605Z,10.30
2023-01-12T18:46:18.250Z,8.60
2023-01-12T18:51:43.293Z,9.00
2023-01-12T18:56:52.793Z,9.60
2023-01-12T19:02:00.101Z,8.80
2023-01-12T19:07:07.394Z,8.00
2023-01-12T19:17:34.284Z,10.10
2023-01-12T19:22:59.269Z,10.80
2023-01-12T19:28:24.599Z,11.30
2023-01-12T19:33:31.623Z,11.50
2023-01-12T19:38:39.546Z,11.40
2023-01-12T19:43:49.578Z,11.30
2023-01-12T19:48:56.838Z,11.90
2023-01-12T19:54:04.089Z,11.60
2023-01-12T20:02:31.854Z,12.50
2023-01-12T20:07:39.503Z,12.80
2023-01-12T20:12:46.814Z,11.30
2023-01-12T20:17:56.784Z,12.30
2023-01-12T20:23:03.946Z,11.80
2023-01-12T20:33:18.971Z,11.20
2023-01-12T20:38:26.710Z,10.10
2023-01-12T20:43:34.525Z,9.60
2023-01-12T20:48:42.925Z,10.70
2023-01-12T20:53:50.292Z,12.20
2023-01-12T20:58:58.202Z,9.70
2023-01-12T21:04:05.351Z,10.50
2023-01-12T21:09:12.850Z,9.70
2023-01-12T21:19:27.221Z,10.30
2023-01-12T21:24:34.684Z,9.30
2023-01-12T21:29:41.839Z,9.60
2023-01-12T21:39:56.717Z,8.60
2023-01-12T21:45:04.143Z,10.20
2023-01-12T21:50:13.553Z,9.50
2023-01-12T21:55:20.843Z,8.60
2023-01-12T22:05:34.721Z,7.20
2023-01-12T22:10:42.261Z,9.10
2023-01-12T22:15:51.150Z,7.40
2023-01-12T22:21:03.920Z,9.20
2023-01-12T22:26:13.326Z,9.30
2023-01-12T22:31:23.018Z,8.60
2023-01-12T22:36:32.192Z,9.00
2023-01-12T22:41:42.162Z,8.10
2023-01-12T22:46:49.349Z,8.80
2023-01-12T22:57:03.183Z,9.80
2023-01-12T23:02:24.419Z,9.10
2023-01-12T23:07:32.054Z,11.40
2023-01-12T23:12:39.235Z,10.60
2023-01-12T23:22:53.645Z,12.00
2023-01-12T23:28:01.546Z,12.00
2023-01-12T23:33:09.310Z,13.30
2023-01-12T23:38:18.123Z,12.40
2023-01-12T23:43:25.969Z,13.50
2023-01-12T23:48:34.466Z,13.10
2023-01-12T23:53:42.048Z,14.80
2023-01-12T23:58:49.547Z,13.60
